sensor_id;sensor_type;location;lat;lon;timestamp;temperature;humidity
69677;DHT22;56914;51.058;9.326;2022-10-16T00:01:46;20.80;63.20
69677;DHT22;56914;51.058;9.326;2022-10-16T00:04:14;20.80;63.20
69677;DHT22;56914;51.058;9.326;2022-10-16T00:06:42;20.80;63.20
69677;DHT22;56914;51.058;9.326;2022-10-16T00:09:10;20.80;63.20
69677;DHT22;56914;51.058;9.326;2022-10-16T00:11:38;20.70;63.10
69677;DHT22;56914;51.058;9.326;2022-10-16T00:14:08;20.70;63.20
69677;DHT22;56914;51.058;9.326;2022-10-16T00:16:37;20.60;63.20
69677;DHT22;56914;51.058;9.326;2022-10-16T00:19:06;20.60;63.10
69677;DHT22;56914;51.058;9.326;2022-10-16T00:21:34;20.50;63.00
69677;DHT22;56914;51.058;9.326;2022-10-16T00:24:02;20.40;63.10
69677;DHT22;56914;51.058;9.326;2022-10-16T00:26:31;20.40;63.10
69677;DHT22;56914;51.058;9.326;2022-10-16T00:29:00;20.30;63.20
69677;DHT22;56914;51.058;9.326;2022-10-16T00:31:29;20.30;63.20
69677;DHT22;56914;51.058;9.326;2022-10-16T00:33:58;20.40;63.30
69677;DHT22;56914;51.058;9.326;2022-10-16T00:36:27;20.30;63.20
69677;DHT22;56914;51.058;9.326;2022-10-16T00:38:55;20.30;63.40
69677;DHT22;56914;51.058;9.326;2022-10-16T00:41:24;20.30;63.40
69677;DHT22;56914;51.058;9.326;2022-10-16T00:43:53;20.30;63.40
69677;DHT22;56914;51.058;9.326;2022-10-16T00:46:21;20.30;63.30
69677;DHT22;56914;51.058;9.326;2022-10-16T00:48:50;20.40;63.30
69677;DHT22;56914;51.058;9.326;2022-10-16T00:51:21;20.40;63.30
69677;DHT22;56914;51.058;9.326;2022-10-16T00:53:50;20.40;63.50
69677;DHT22;56914;51.058;9.326;2022-10-16T00:56:18;20.30;63.70
69677;DHT22;56914;51.058;9.326;2022-10-16T00:58:46;20.30;64.00
69677;DHT22;56914;51.058;9.326;2022-10-16T01:01:14;20.20;64.10
69677;DHT22;56914;51.058;9.326;2022-10-16T01:03:42;20.20;64.20
69677;DHT22;56914;51.058;9.326;2022-10-16T01:06:21;20.30;64.30
69677;DHT22;56914;51.058;9.326;2022-10-16T01:09:09;20.30;64.30
69677;DHT22;56914;51.058;9.326;2022-10-16T01:11:39;20.20;64.30
69677;DHT22;56914;51.058;9.326;2022-10-16T01:14:11;20.20;64.30
69677;DHT22;56914;51.058;9.326;2022-10-16T01:16:43;20.20;64.50
69677;DHT22;56914;51.058;9.326;2022-10-16T01:19:14;20.10;64.50
69677;DHT22;56914;51.058;9.326;2022-10-16T01:21:46;20.10;64.60
69677;DHT22;56914;51.058;9.326;2022-10-16T01:24:17;20.00;64.60
69677;DHT22;56914;51.058;9.326;2022-10-16T01:26:50;20.00;64.80
69677;DHT22;56914;51.058;9.326;2022-10-16T01:29:23;20.00;64.80
69677;DHT22;56914;51.058;9.326;2022-10-16T01:31:53;20.00;64.70
69677;DHT22;56914;51.058;9.326;2022-10-16T01:34:23;20.00;64.90
69677;DHT22;56914;51.058;9.326;2022-10-16T01:36:53;20.00;64.90
69677;DHT22;56914;51.058;9.326;2022-10-16T01:39:22;20.00;64.90
69677;DHT22;56914;51.058;9.326;2022-10-16T01:41:55;20.00;64.80
69677;DHT22;56914;51.058;9.326;2022-10-16T01:44:28;20.00;64.70
69677;DHT22;56914;51.058;9.326;2022-10-16T01:46:56;20.00;64.60
69677;DHT22;56914;51.058;9.326;2022-10-16T01:49:25;20.00;64.60
69677;DHT22;56914;51.058;9.326;2022-10-16T01:51:54;20.00;64.50
69677;DHT22;56914;51.058;9.326;2022-10-16T01:54:24;20.00;64.50
69677;DHT22;56914;51.058;9.326;2022-10-16T01:56:53;20.00;64.50
69677;DHT22;56914;51.058;9.326;2022-10-16T01:59:21;20.00;64.60
69677;DHT22;56914;51.058;9.326;2022-10-16T02:01:54;20.00;64.70
69677;DHT22;56914;51.058;9.326;2022-10-16T02:04:23;19.90;64.80
69677;DHT22;56914;51.058;9.326;2022-10-16T02:06:54;19.90;64.80
69677;DHT22;56914;51.058;9.326;2022-10-16T02:09:22;19.90;64.90
69677;DHT22;56914;51.058;9.326;2022-10-16T02:11:50;19.90;65.00
69677;DHT22;56914;51.058;9.326;2022-10-16T02:14:20;19.90;65.00
69677;DHT22;56914;51.058;9.326;2022-10-16T02:16:50;19.90;65.10
69677;DHT22;56914;51.058;9.326;2022-10-16T02:19:19;19.90;65.10
69677;DHT22;56914;51.058;9.326;2022-10-16T02:21:49;19.90;65.10
69677;DHT22;56914;51.058;9.326;2022-10-16T02:24:19;19.90;65.20
69677;DHT22;56914;51.058;9.326;2022-10-16T02:26:52;19.90;65.20
69677;DHT22;56914;51.058;9.326;2022-10-16T02:29:22;19.90;65.10
69677;DHT22;56914;51.058;9.326;2022-10-16T02:31:54;19.90;65.00
69677;DHT22;56914;51.058;9.326;2022-10-16T02:34:24;19.90;64.90
69677;DHT22;56914;51.058;9.326;2022-10-16T02:36:53;19.90;64.80
69677;DHT22;56914;51.058;9.326;2022-10-16T02:39:22;19.90;64.80
69677;DHT22;56914;51.058;9.326;2022-10-16T02:41:50;19.90;64.70
69677;DHT22;56914;51.058;9.326;2022-10-16T02:44:18;19.90;64.50
69677;DHT22;56914;51.058;9.326;2022-10-16T02:46:45;19.90;64.50
69677;DHT22;56914;51.058;9.326;2022-10-16T02:49:16;19.80;64.50
69677;DHT22;56914;51.058;9.326;2022-10-16T02:51:45;19.80;64.60
69677;DHT22;56914;51.058;9.326;2022-10-16T02:54:13;19.70;64.60
69677;DHT22;56914;51.058;9.326;2022-10-16T02:56:41;19.70;64.50
69677;DHT22;56914;51.058;9.326;2022-10-16T02:59:09;19.70;64.50
69677;DHT22;56914;51.058;9.326;2022-10-16T03:01:37;19.70;64.60
69677;DHT22;56914;51.058;9.326;2022-10-16T03:04:04;19.60;64.70
69677;DHT22;56914;51.058;9.326;2022-10-16T03:06:32;19.60;64.70
69677;DHT22;56914;51.058;9.326;2022-10-16T03:09:04;19.60;64.70
69677;DHT22;56914;51.058;9.326;2022-10-16T03:11:31;19.70;64.70
69677;DHT22;56914;51.058;9.326;2022-10-16T03:13:59;19.70;64.70
69677;DHT22;56914;51.058;9.326;2022-10-16T03:16:27;19.70;64.50
69677;DHT22;56914;51.058;9.326;2022-10-16T03:18:55;19.70;64.50
69677;DHT22;56914;51.058;9.326;2022-10-16T03:21:22;19.70;64.40
69677;DHT22;56914;51.058;9.326;2022-10-16T03:23:52;19.70;64.30
69677;DHT22;56914;51.058;9.326;2022-10-16T03:26:21;19.70;64.30
69677;DHT22;56914;51.058;9.326;2022-10-16T03:28:49;19.70;64.40
69677;DHT22;56914;51.058;9.326;2022-10-16T03:31:17;19.70;64.50
69677;DHT22;56914;51.058;9.326;2022-10-16T03:33:45;19.60;64.50
69677;DHT22;56914;51.058;9.326;2022-10-16T03:36:13;19.60;64.60
69677;DHT22;56914;51.058;9.326;2022-10-16T03:38:41;19.60;64.70
69677;DHT22;56914;51.058;9.326;2022-10-16T03:41:08;19.60;64.70
69677;DHT22;56914;51.058;9.326;2022-10-16T03:43:38;19.60;64.70
69677;DHT22;56914;51.058;9.326;2022-10-16T03:46:05;19.60;64.70
69677;DHT22;56914;51.058;9.326;2022-10-16T03:48:33;19.60;64.70
69677;DHT22;56914;51.058;9.326;2022-10-16T03:51:01;19.60;64.60
69677;DHT22;56914;51.058;9.326;2022-10-16T03:53:29;19.60;64.60
69677;DHT22;56914;51.058;9.326;2022-10-16T03:55:57;19.60;64.50
69677;DHT22;56914;51.058;9.326;2022-10-16T03:58:24;19.50;64.60
69677;DHT22;56914;51.058;9.326;2022-10-16T04:00:54;19.50;64.60
69677;DHT22;56914;51.058;9.326;2022-10-16T04:03:22;19.50;64.60
69677;DHT22;56914;51.058;9.326;2022-10-16T04:05:49;19.50;64.60
69677;DHT22;56914;51.058;9.326;2022-10-16T04:08:17;19.50;64.60
69677;DHT22;56914;51.058;9.326;2022-10-16T04:10:45;19.50;64.70
69677;DHT22;56914;51.058;9.326;2022-10-16T04:13:14;19.50;64.70
69677;DHT22;56914;51.058;9.326;2022-10-16T04:15:42;19.50;64.70
69677;DHT22;56914;51.058;9.326;2022-10-16T04:18:13;19.40;64.60
69677;DHT22;56914;51.058;9.326;2022-10-16T04:20:41;19.40;64.60
69677;DHT22;56914;51.058;9.326;2022-10-16T04:23:09;19.50;64.60
69677;DHT22;56914;51.058;9.326;2022-10-16T04:25:46;19.50;64.60
69677;DHT22;56914;51.058;9.326;2022-10-16T04:28:13;19.50;64.50
69677;DHT22;56914;51.058;9.326;2022-10-16T04:30:41;19.50;65.00
69677;DHT22;56914;51.058;9.326;2022-10-16T04:33:09;19.50;64.40
69677;DHT22;56914;51.058;9.326;2022-10-16T04:35:38;19.50;64.40
69677;DHT22;56914;51.058;9.326;2022-10-16T04:38:06;19.40;64.50
69677;DHT22;56914;51.058;9.326;2022-10-16T04:40:34;19.40;64.60
69677;DHT22;56914;51.058;9.326;2022-10-16T04:43:03;19.30;64.70
69677;DHT22;56914;51.058;9.326;2022-10-16T04:45:31;19.30;64.80
69677;DHT22;56914;51.058;9.326;2022-10-16T04:47:59;19.30;65.40
69677;DHT22;56914;51.058;9.326;2022-10-16T04:50:27;19.40;64.60
69677;DHT22;56914;51.058;9.326;2022-10-16T04:52:56;19.40;64.50
69677;DHT22;56914;51.058;9.326;2022-10-16T04:55:24;19.50;64.50
69677;DHT22;56914;51.058;9.326;2022-10-16T04:57:52;19.50;64.40
69677;DHT22;56914;51.058;9.326;2022-10-16T05:00:20;19.50;64.50
69677;DHT22;56914;51.058;9.326;2022-10-16T05:02:49;19.50;64.60
69677;DHT22;56914;51.058;9.326;2022-10-16T05:05:18;19.50;64.70
69677;DHT22;56914;51.058;9.326;2022-10-16T05:07:46;19.50;64.60
69677;DHT22;56914;51.058;9.326;2022-10-16T05:10:16;19.50;64.60
69677;DHT22;56914;51.058;9.326;2022-10-16T05:12:43;19.50;64.70
69677;DHT22;56914;51.058;9.326;2022-10-16T05:15:11;19.50;64.60
69677;DHT22;56914;51.058;9.326;2022-10-16T05:17:39;19.40;64.70
69677;DHT22;56914;51.058;9.326;2022-10-16T05:20:10;19.40;64.80
69677;DHT22;56914;51.058;9.326;2022-10-16T05:22:38;19.50;64.80
69677;DHT22;56914;51.058;9.326;2022-10-16T05:25:06;19.50;64.90
69677;DHT22;56914;51.058;9.326;2022-10-16T05:27:35;19.40;65.00
69677;DHT22;56914;51.058;9.326;2022-10-16T05:30:03;19.40;65.00
69677;DHT22;56914;51.058;9.326;2022-10-16T05:32:36;19.40;65.10
69677;DHT22;56914;51.058;9.326;2022-10-16T05:35:04;19.40;65.00
69677;DHT22;56914;51.058;9.326;2022-10-16T05:37:38;19.40;65.00
69677;DHT22;56914;51.058;9.326;2022-10-16T05:40:06;19.50;64.90
69677;DHT22;56914;51.058;9.326;2022-10-16T05:42:35;19.50;64.90
69677;DHT22;56914;51.058;9.326;2022-10-16T05:45:04;19.50;64.90
69677;DHT22;56914;51.058;9.326;2022-10-16T05:47:34;19.50;64.90
69677;DHT22;56914;51.058;9.326;2022-10-16T05:50:03;19.40;64.90
69677;DHT22;56914;51.058;9.326;2022-10-16T05:52:31;19.40;64.80
69677;DHT22;56914;51.058;9.326;2022-10-16T05:54:59;19.40;64.70
69677;DHT22;56914;51.058;9.326;2022-10-16T05:57:27;19.40;64.60
69677;DHT22;56914;51.058;9.326;2022-10-16T05:59:56;19.40;64.60
69677;DHT22;56914;51.058;9.326;2022-10-16T06:02:24;19.40;64.60
69677;DHT22;56914;51.058;9.326;2022-10-16T06:04:52;19.40;64.60
69677;DHT22;56914;51.058;9.326;2022-10-16T06:07:20;19.40;64.60
69677;DHT22;56914;51.058;9.326;2022-10-16T06:09:48;19.40;64.50
69677;DHT22;56914;51.058;9.326;2022-10-16T06:12:16;19.40;64.40
69677;DHT22;56914;51.058;9.326;2022-10-16T06:14:44;19.40;64.40
69677;DHT22;56914;51.058;9.326;2022-10-16T06:17:14;19.40;64.40
69677;DHT22;56914;51.058;9.326;2022-10-16T06:19:42;19.50;64.30
69677;DHT22;56914;51.058;9.326;2022-10-16T06:22:10;19.50;64.20
69677;DHT22;56914;51.058;9.326;2022-10-16T06:24:51;19.50;64.20
69677;DHT22;56914;51.058;9.326;2022-10-16T06:28:15;19.50;64.00
69677;DHT22;56914;51.058;9.326;2022-10-16T06:31:06;19.50;64.00
69677;DHT22;56914;51.058;9.326;2022-10-16T06:34:14;19.60;63.80
69677;DHT22;56914;51.058;9.326;2022-10-16T06:36:41;19.60;63.60
69677;DHT22;56914;51.058;9.326;2022-10-16T06:39:09;19.60;63.50
69677;DHT22;56914;51.058;9.326;2022-10-16T06:41:37;19.60;63.40
69677;DHT22;56914;51.058;9.326;2022-10-16T06:44:05;19.60;63.30
69677;DHT22;56914;51.058;9.326;2022-10-16T06:46:34;19.60;63.30
69677;DHT22;56914;51.058;9.326;2022-10-16T06:49:02;19.60;63.20
69677;DHT22;56914;51.058;9.326;2022-10-16T06:51:31;19.60;63.20
69677;DHT22;56914;51.058;9.326;2022-10-16T06:54:06;19.50;63.30
69677;DHT22;56914;51.058;9.326;2022-10-16T06:56:33;19.50;63.30
69677;DHT22;56914;51.058;9.326;2022-10-16T06:59:02;19.40;63.50
69677;DHT22;56914;51.058;9.326;2022-10-16T07:01:30;19.30;63.70
69677;DHT22;56914;51.058;9.326;2022-10-16T07:03:58;19.30;63.80
69677;DHT22;56914;51.058;9.326;2022-10-16T07:06:27;19.30;63.80
69677;DHT22;56914;51.058;9.326;2022-10-16T07:09:00;19.30;63.80
69677;DHT22;56914;51.058;9.326;2022-10-16T07:11:28;19.30;63.70
69677;DHT22;56914;51.058;9.326;2022-10-16T07:13:55;19.40;63.70
69677;DHT22;56914;51.058;9.326;2022-10-16T07:16:24;19.40;63.50
69677;DHT22;56914;51.058;9.326;2022-10-16T07:18:53;19.50;63.40
69677;DHT22;56914;51.058;9.326;2022-10-16T07:21:28;19.50;63.90
69677;DHT22;56914;51.058;9.326;2022-10-16T07:23:57;19.50;63.20
69677;DHT22;56914;51.058;9.326;2022-10-16T08:11:30;20.00;62.80
69677;DHT22;56914;51.058;9.326;2022-10-16T08:14:00;20.10;62.70
69677;DHT22;56914;51.058;9.326;2022-10-16T08:16:30;20.20;62.70
69677;DHT22;56914;51.058;9.326;2022-10-16T08:18:58;20.20;62.60
69677;DHT22;56914;51.058;9.326;2022-10-16T08:21:29;20.20;62.50
69677;DHT22;56914;51.058;9.326;2022-10-16T08:23:57;20.30;62.50
69677;DHT22;56914;51.058;9.326;2022-10-16T08:26:26;20.30;62.50
69677;DHT22;56914;51.058;9.326;2022-10-16T08:28:56;20.40;62.50
69677;DHT22;56914;51.058;9.326;2022-10-16T08:31:24;20.50;62.50
69677;DHT22;56914;51.058;9.326;2022-10-16T08:33:53;20.60;62.40
69677;DHT22;56914;51.058;9.326;2022-10-16T08:36:21;20.70;62.30
69677;DHT22;56914;51.058;9.326;2022-10-16T08:38:50;20.70;62.40
69677;DHT22;56914;51.058;9.326;2022-10-16T08:44:18;21.10;62.30
69677;DHT22;56914;51.058;9.326;2022-10-16T08:46:52;21.30;61.90
69677;DHT22;56914;51.058;9.326;2022-10-16T08:49:23;21.50;61.60
69677;DHT22;56914;51.058;9.326;2022-10-16T08:51:52;21.60;61.50
69677;DHT22;56914;51.058;9.326;2022-10-16T08:54:26;21.60;61.50
69677;DHT22;56914;51.058;9.326;2022-10-16T08:56:56;21.70;61.40
69677;DHT22;56914;51.058;9.326;2022-10-16T08:59:27;21.80;61.20
69677;DHT22;56914;51.058;9.326;2022-10-16T09:01:56;21.90;61.10
69677;DHT22;56914;51.058;9.326;2022-10-16T09:04:48;21.90;60.90
69677;DHT22;56914;51.058;9.326;2022-10-16T09:07:24;22.00;60.90
69677;DHT22;56914;51.058;9.326;2022-10-16T09:09:55;22.10;60.80
69677;DHT22;56914;51.058;9.326;2022-10-16T09:12:26;22.40;60.90
69677;DHT22;56914;51.058;9.326;2022-10-16T09:15:01;22.70;60.90
69677;DHT22;56914;51.058;9.326;2022-10-16T09:17:32;22.90;60.00
69677;DHT22;56914;51.058;9.326;2022-10-16T09:20:13;23.00;59.60
69677;DHT22;56914;51.058;9.326;2022-10-16T09:22:45;23.10;60.00
69677;DHT22;56914;51.058;9.326;2022-10-16T09:25:14;23.30;59.50
69677;DHT22;56914;51.058;9.326;2022-10-16T09:27:43;23.50;59.20
69677;DHT22;56914;51.058;9.326;2022-10-16T09:30:14;23.80;59.00
69677;DHT22;56914;51.058;9.326;2022-10-16T09:32:43;24.00;58.30
69677;DHT22;56914;51.058;9.326;2022-10-16T09:35:13;24.00;57.50
69677;DHT22;56914;51.058;9.326;2022-10-16T09:37:42;23.70;56.90
69677;DHT22;56914;51.058;9.326;2022-10-16T09:40:23;23.50;57.10
69677;DHT22;56914;51.058;9.326;2022-10-16T09:42:52;23.30;57.30
69677;DHT22;56914;51.058;9.326;2022-10-16T09:45:23;23.20;57.40
69677;DHT22;56914;51.058;9.326;2022-10-16T09:47:51;23.10;57.30
69677;DHT22;56914;51.058;9.326;2022-10-16T09:50:24;23.10;57.30
69677;DHT22;56914;51.058;9.326;2022-10-16T09:53:05;23.00;57.40
69677;DHT22;56914;51.058;9.326;2022-10-16T09:55:33;23.00;57.30
69677;DHT22;56914;51.058;9.326;2022-10-16T09:58:01;23.00;57.20
69677;DHT22;56914;51.058;9.326;2022-10-16T10:00:30;23.00;57.00
69677;DHT22;56914;51.058;9.326;2022-10-16T10:02:58;23.10;57.10
69677;DHT22;56914;51.058;9.326;2022-10-16T10:05:27;23.20;56.60
69677;DHT22;56914;51.058;9.326;2022-10-16T10:07:55;23.30;56.10
69677;DHT22;56914;51.058;9.326;2022-10-16T10:10:24;23.30;56.00
69677;DHT22;56914;51.058;9.326;2022-10-16T10:12:53;23.30;56.00
69677;DHT22;56914;51.058;9.326;2022-10-16T10:15:21;23.40;55.80
69677;DHT22;56914;51.058;9.326;2022-10-16T10:17:52;23.60;55.60
69677;DHT22;56914;51.058;9.326;2022-10-16T10:20:24;23.70;55.40
69677;DHT22;56914;51.058;9.326;2022-10-16T10:22:52;23.80;55.50
69677;DHT22;56914;51.058;9.326;2022-10-16T10:25:25;23.90;55.10
69677;DHT22;56914;51.058;9.326;2022-10-16T10:28:01;23.90;54.60
69677;DHT22;56914;51.058;9.326;2022-10-16T10:30:34;23.80;54.80
69677;DHT22;56914;51.058;9.326;2022-10-16T10:33:18;23.70;54.30
69677;DHT22;56914;51.058;9.326;2022-10-16T10:35:49;23.60;54.20
69677;DHT22;56914;51.058;9.326;2022-10-16T10:38:25;23.60;54.50
69677;DHT22;56914;51.058;9.326;2022-10-16T10:41:00;23.70;53.90
69677;DHT22;56914;51.058;9.326;2022-10-16T10:43:37;23.80;52.70
69677;DHT22;56914;51.058;9.326;2022-10-16T10:46:07;23.70;52.60
69677;DHT22;56914;51.058;9.326;2022-10-16T10:48:54;23.70;52.20
69677;DHT22;56914;51.058;9.326;2022-10-16T10:51:27;23.80;52.00
69677;DHT22;56914;51.058;9.326;2022-10-16T10:54:11;23.70;52.00
69677;DHT22;56914;51.058;9.326;2022-10-16T10:57:00;23.60;52.20
69677;DHT22;56914;51.058;9.326;2022-10-16T10:59:53;23.60;52.20
69677;DHT22;56914;51.058;9.326;2022-10-16T11:03:11;23.70;52.00
69677;DHT22;56914;51.058;9.326;2022-10-16T11:05:51;23.80;52.00
69677;DHT22;56914;51.058;9.326;2022-10-16T11:08:43;23.90;51.70
69677;DHT22;56914;51.058;9.326;2022-10-16T11:11:36;24.00;51.60
69677;DHT22;56914;51.058;9.326;2022-10-16T11:17:31;24.30;51.10
69677;DHT22;56914;51.058;9.326;2022-10-16T11:31:11;24.40;51.00
69677;DHT22;56914;51.058;9.326;2022-10-16T11:33:44;24.90;50.50
69677;DHT22;56914;51.058;9.326;2022-10-16T11:36:19;24.90;50.10
69677;DHT22;56914;51.058;9.326;2022-10-16T11:38:55;24.90;50.20
69677;DHT22;56914;51.058;9.326;2022-10-16T11:41:52;25.00;50.10
69677;DHT22;56914;51.058;9.326;2022-10-16T11:44:32;25.10;49.80
69677;DHT22;56914;51.058;9.326;2022-10-16T11:47:05;25.10;49.60
69677;DHT22;56914;51.058;9.326;2022-10-16T11:49:57;24.90;49.30
69677;DHT22;56914;51.058;9.326;2022-10-16T11:52:26;24.80;49.50
69677;DHT22;56914;51.058;9.326;2022-10-16T11:54:56;24.90;49.50
69677;DHT22;56914;51.058;9.326;2022-10-16T11:57:27;25.00;49.20
69677;DHT22;56914;51.058;9.326;2022-10-16T11:59:57;25.00;48.90
69677;DHT22;56914;51.058;9.326;2022-10-16T12:02:36;25.10;49.00
69677;DHT22;56914;51.058;9.326;2022-10-16T12:05:11;25.10;48.70
69677;DHT22;56914;51.058;9.326;2022-10-16T12:07:52;25.10;48.60
69677;DHT22;56914;51.058;9.326;2022-10-16T12:12:52;25.10;48.80
69677;DHT22;56914;51.058;9.326;2022-10-16T12:32:28;25.80;47.60
69677;DHT22;56914;51.058;9.326;2022-10-16T12:35:17;25.70;47.80
69677;DHT22;56914;51.058;9.326;2022-10-16T12:37:46;25.60;47.80
69677;DHT22;56914;51.058;9.326;2022-10-16T12:40:15;25.50;47.50
69677;DHT22;56914;51.058;9.326;2022-10-16T12:42:45;25.50;47.80
69677;DHT22;56914;51.058;9.326;2022-10-16T12:45:22;25.60;47.80
69677;DHT22;56914;51.058;9.326;2022-10-16T12:47:54;25.60;48.00
69677;DHT22;56914;51.058;9.326;2022-10-16T12:50:32;25.70;47.60
69677;DHT22;56914;51.058;9.326;2022-10-16T12:53:01;25.90;47.60
69677;DHT22;56914;51.058;9.326;2022-10-16T12:55:32;26.10;47.50
69677;DHT22;56914;51.058;9.326;2022-10-16T12:58:05;26.30;47.70
69677;DHT22;56914;51.058;9.326;2022-10-16T13:00:38;26.40;46.80
69677;DHT22;56914;51.058;9.326;2022-10-16T13:06:01;26.50;46.50
69677;DHT22;56914;51.058;9.326;2022-10-16T13:08:36;26.30;46.80
69677;DHT22;56914;51.058;9.326;2022-10-16T13:11:08;26.20;47.10
69677;DHT22;56914;51.058;9.326;2022-10-16T13:13:43;26.30;46.90
69677;DHT22;56914;51.058;9.326;2022-10-16T13:16:16;26.30;46.70
69677;DHT22;56914;51.058;9.326;2022-10-16T13:18:50;26.10;46.40
69677;DHT22;56914;51.058;9.326;2022-10-16T13:21:27;25.90;46.60
69677;DHT22;56914;51.058;9.326;2022-10-16T13:23:58;25.90;46.70
69677;DHT22;56914;51.058;9.326;2022-10-16T13:26:31;25.90;46.50
69677;DHT22;56914;51.058;9.326;2022-10-16T13:29:02;26.00;46.50
69677;DHT22;56914;51.058;9.326;2022-10-16T13:31:30;26.00;46.60
69677;DHT22;56914;51.058;9.326;2022-10-16T13:33:58;26.00;46.60
69677;DHT22;56914;51.058;9.326;2022-10-16T13:36:29;26.10;46.30
69677;DHT22;56914;51.058;9.326;2022-10-16T13:39:00;26.20;45.90
69677;DHT22;56914;51.058;9.326;2022-10-16T13:41:28;26.20;45.90
69677;DHT22;56914;51.058;9.326;2022-10-16T13:43:56;26.20;46.00
69677;DHT22;56914;51.058;9.326;2022-10-16T13:46:24;26.10;45.80
69677;DHT22;56914;51.058;9.326;2022-10-16T13:48:56;26.00;45.90
69677;DHT22;56914;51.058;9.326;2022-10-16T13:51:24;26.00;45.80
69677;DHT22;56914;51.058;9.326;2022-10-16T13:53:54;26.00;45.50
69677;DHT22;56914;51.058;9.326;2022-10-16T13:56:22;25.90;45.40
69677;DHT22;56914;51.058;9.326;2022-10-16T13:58:59;25.70;45.50
69677;DHT22;56914;51.058;9.326;2022-10-16T14:01:27;25.70;45.70
69677;DHT22;56914;51.058;9.326;2022-10-16T14:04:02;25.60;45.50
69677;DHT22;56914;51.058;9.326;2022-10-16T14:06:31;25.60;45.70
69677;DHT22;56914;51.058;9.326;2022-10-16T14:09:02;25.60;45.70
69677;DHT22;56914;51.058;9.326;2022-10-16T14:11:32;25.70;45.80
69677;DHT22;56914;51.058;9.326;2022-10-16T14:14:00;25.70;45.40
69677;DHT22;56914;51.058;9.326;2022-10-16T14:16:29;25.70;45.40
69677;DHT22;56914;51.058;9.326;2022-10-16T14:18:59;25.70;45.30
69677;DHT22;56914;51.058;9.326;2022-10-16T14:21:27;25.60;45.20
69677;DHT22;56914;51.058;9.326;2022-10-16T14:23:56;25.50;45.40
69677;DHT22;56914;51.058;9.326;2022-10-16T14:26:25;25.30;45.50
69677;DHT22;56914;51.058;9.326;2022-10-16T14:29:10;25.20;45.80
69677;DHT22;56914;51.058;9.326;2022-10-16T14:31:38;25.10;45.80
69677;DHT22;56914;51.058;9.326;2022-10-16T14:36:50;25.10;46.30
69677;DHT22;56914;51.058;9.326;2022-10-16T14:39:19;25.20;46.10
69677;DHT22;56914;51.058;9.326;2022-10-16T14:41:49;25.30;46.10
69677;DHT22;56914;51.058;9.326;2022-10-16T14:44:17;25.40;46.10
69677;DHT22;56914;51.058;9.326;2022-10-16T14:46:46;25.50;46.10
69677;DHT22;56914;51.058;9.326;2022-10-16T14:49:15;25.60;46.00
69677;DHT22;56914;51.058;9.326;2022-10-16T14:51:44;25.50;45.90
69677;DHT22;56914;51.058;9.326;2022-10-16T14:54:12;25.40;46.10
69677;DHT22;56914;51.058;9.326;2022-10-16T14:56:47;25.30;46.20
69677;DHT22;56914;51.058;9.326;2022-10-16T14:59:18;25.20;46.50
69677;DHT22;56914;51.058;9.326;2022-10-16T15:01:49;25.20;46.50
69677;DHT22;56914;51.058;9.326;2022-10-16T15:04:17;25.00;46.70
69677;DHT22;56914;51.058;9.326;2022-10-16T15:06:45;25.00;46.80
69677;DHT22;56914;51.058;9.326;2022-10-16T15:09:14;24.90;47.00
69677;DHT22;56914;51.058;9.326;2022-10-16T15:11:42;24.80;47.20
69677;DHT22;56914;51.058;9.326;2022-10-16T15:14:13;24.90;47.50
69677;DHT22;56914;51.058;9.326;2022-10-16T15:16:50;25.00;47.60
69677;DHT22;56914;51.058;9.326;2022-10-16T15:19:20;25.00;47.50
69677;DHT22;56914;51.058;9.326;2022-10-16T15:21:48;25.10;47.60
69677;DHT22;56914;51.058;9.326;2022-10-16T15:24:16;25.20;47.50
69677;DHT22;56914;51.058;9.326;2022-10-16T15:26:47;25.30;47.40
69677;DHT22;56914;51.058;9.326;2022-10-16T15:29:15;25.30;47.50
69677;DHT22;56914;51.058;9.326;2022-10-16T15:31:43;25.30;47.40
69677;DHT22;56914;51.058;9.326;2022-10-16T15:34:15;25.20;47.30
69677;DHT22;56914;51.058;9.326;2022-10-16T15:36:44;25.20;47.60
69677;DHT22;56914;51.058;9.326;2022-10-16T15:39:13;25.10;47.60
69677;DHT22;56914;51.058;9.326;2022-10-16T15:41:41;24.90;47.90
69677;DHT22;56914;51.058;9.326;2022-10-16T15:44:09;24.80;48.30
69677;DHT22;56914;51.058;9.326;2022-10-16T15:46:37;24.70;48.70
69677;DHT22;56914;51.058;9.326;2022-10-16T15:49:05;24.60;48.90
69677;DHT22;56914;51.058;9.326;2022-10-16T15:51:36;24.60;49.00
69677;DHT22;56914;51.058;9.326;2022-10-16T15:54:05;24.50;49.50
69677;DHT22;56914;51.058;9.326;2022-10-16T15:56:33;24.30;50.00
69677;DHT22;56914;51.058;9.326;2022-10-16T15:59:03;24.10;50.30
69677;DHT22;56914;51.058;9.326;2022-10-16T16:01:32;24.00;50.60
69677;DHT22;56914;51.058;9.326;2022-10-16T16:04:01;23.90;51.10
69677;DHT22;56914;51.058;9.326;2022-10-16T16:06:47;23.70;51.40
69677;DHT22;56914;51.058;9.326;2022-10-16T16:09:14;23.70;51.50
69677;DHT22;56914;51.058;9.326;2022-10-16T16:11:42;23.70;51.50
69677;DHT22;56914;51.058;9.326;2022-10-16T16:14:12;23.60;51.70
69677;DHT22;56914;51.058;9.326;2022-10-16T16:16:40;23.60;51.90
69677;DHT22;56914;51.058;9.326;2022-10-16T16:19:08;23.50;52.20
69677;DHT22;56914;51.058;9.326;2022-10-16T16:21:37;23.40;52.30
69677;DHT22;56914;51.058;9.326;2022-10-16T16:24:07;23.30;52.50
69677;DHT22;56914;51.058;9.326;2022-10-16T16:26:35;23.20;52.80
69677;DHT22;56914;51.058;9.326;2022-10-16T16:29:09;23.10;53.10
69677;DHT22;56914;51.058;9.326;2022-10-16T16:31:38;23.10;53.40
69677;DHT22;56914;51.058;9.326;2022-10-16T16:34:07;22.90;53.50
69677;DHT22;56914;51.058;9.326;2022-10-16T16:36:35;22.90;53.80
69677;DHT22;56914;51.058;9.326;2022-10-16T16:39:03;22.90;53.90
69677;DHT22;56914;51.058;9.326;2022-10-16T16:41:32;22.80;54.00
69677;DHT22;56914;51.058;9.326;2022-10-16T16:44:03;22.70;54.00
69677;DHT22;56914;51.058;9.326;2022-10-16T16:46:32;22.70;54.00
69677;DHT22;56914;51.058;9.326;2022-10-16T16:49:00;22.60;53.90
69677;DHT22;56914;51.058;9.326;2022-10-16T16:51:28;22.50;54.10
69677;DHT22;56914;51.058;9.326;2022-10-16T16:54:21;22.50;54.10
69677;DHT22;56914;51.058;9.326;2022-10-16T16:57:36;22.50;54.10
69677;DHT22;56914;51.058;9.326;2022-10-16T17:00:04;22.30;54.30
69677;DHT22;56914;51.058;9.326;2022-10-16T17:02:32;22.30;54.40
69677;DHT22;56914;51.058;9.326;2022-10-16T17:05:00;22.20;54.20
69677;DHT22;56914;51.058;9.326;2022-10-16T17:07:30;22.20;54.10
69677;DHT22;56914;51.058;9.326;2022-10-16T17:09:59;22.10;54.20
69677;DHT22;56914;51.058;9.326;2022-10-16T17:12:28;22.00;54.20
69677;DHT22;56914;51.058;9.326;2022-10-16T17:14:57;21.90;54.30
69677;DHT22;56914;51.058;9.326;2022-10-16T17:17:25;21.80;54.40
69677;DHT22;56914;51.058;9.326;2022-10-16T17:19:54;21.80;54.60
69677;DHT22;56914;51.058;9.326;2022-10-16T17:22:21;21.60;54.70